sensor_id;sensor_type;location;lat;lon;timestamp;pressure;altitude;pressure_sealevel;temperature;humidity
44751;BME280;30477;48.224;11.470;2023-06-19T00:01:05;95731.41;;;20.88;44.98
44751;BME280;30477;48.224;11.470;2023-06-19T00:03:31;95734.66;;;20.83;44.46
44751;BME280;30477;48.224;11.470;2023-06-19T00:05:56;95737.00;;;20.66;44.74
44751;BME280;30477;48.224;11.470;2023-06-19T00:08:21;95739.03;;;20.64;45.15
44751;BME280;30477;48.224;11.470;2023-06-19T00:10:48;95738.44;;;20.62;44.59
44751;BME280;30477;48.224;11.470;2023-06-19T00:13:13;95733.53;;;20.73;44.51
44751;BME280;30477;48.224;11.470;2023-06-19T00:15:39;95739.16;;;20.76;44.49
44751;BME280;30477;48.224;11.470;2023-06-19T00:18:05;95736.47;;;20.83;44.40
44751;BME280;30477;48.224;11.470;2023-06-19T00:20:32;95736.13;;;20.79;44.46
44751;BME280;30477;48.224;11.470;2023-06-19T00:22:57;95740.00;;;20.70;44.47
44751;BME280;30477;48.224;11.470;2023-06-19T00:25:23;95741.41;;;20.73;44.56
44751;BME280;30477;48.224;11.470;2023-06-19T00:27:48;95737.50;;;20.82;44.38
44751;BME280;30477;48.224;11.470;2023-06-19T00:30:14;95735.47;;;20.84;44.48
44751;BME280;30477;48.224;11.470;2023-06-19T00:32:39;95741.13;;;20.87;44.14
44751;BME280;30477;48.224;11.470;2023-06-19T00:35:15;95742.31;;;20.85;44.27
44751;BME280;30477;48.224;11.470;2023-06-19T00:37:41;95747.59;;;20.85;44.74
44751;BME280;30477;48.224;11.470;2023-06-19T00:40:40;95746.34;;;20.94;44.86
44751;BME280;30477;48.224;11.470;2023-06-19T00:43:05;95747.13;;;20.95;44.80
44751;BME280;30477;48.224;11.470;2023-06-19T00:45:31;95753.03;;;20.90;45.80
44751;BME280;30477;48.224;11.470;2023-06-19T00:47:57;95756.91;;;20.81;46.31
44751;BME280;30477;48.224;11.470;2023-06-19T00:50:23;95754.47;;;20.86;46.57
44751;BME280;30477;48.224;11.470;2023-06-19T00:52:49;95768.63;;;20.92;46.54
44751;BME280;30477;48.224;11.470;2023-06-19T00:55:15;95757.50;;;20.83;46.98
44751;BME280;30477;48.224;11.470;2023-06-19T00:57:41;95765.59;;;20.88;47.35
44751;BME280;30477;48.224;11.470;2023-06-19T01:00:07;95764.97;;;20.93;47.13
44751;BME280;30477;48.224;11.470;2023-06-19T01:02:33;95761.88;;;21.02;46.65
44751;BME280;30477;48.224;11.470;2023-06-19T01:04:58;95766.91;;;21.04;46.79
44751;BME280;30477;48.224;11.470;2023-06-19T01:07:46;95768.91;;;21.08;46.71
44751;BME280;30477;48.224;11.470;2023-06-19T01:10:19;95765.19;;;21.16;46.33
44751;BME280;30477;48.224;11.470;2023-06-19T01:12:51;95761.59;;;21.11;46.50
44751;BME280;30477;48.224;11.470;2023-06-19T01:15:18;95765.25;;;21.09;46.34
44751;BME280;30477;48.224;11.470;2023-06-19T01:17:45;95764.84;;;21.13;46.37
44751;BME280;30477;48.224;11.470;2023-06-19T01:20:12;95761.56;;;21.17;46.15
44751;BME280;30477;48.224;11.470;2023-06-19T01:22:38;95770.09;;;21.13;46.41
44751;BME280;30477;48.224;11.470;2023-06-19T01:25:04;95764.50;;;21.02;46.59
44751;BME280;30477;48.224;11.470;2023-06-19T01:27:31;95764.16;;;20.92;46.75
44751;BME280;30477;48.224;11.470;2023-06-19T01:29:57;95771.44;;;20.90;47.31
44751;BME280;30477;48.224;11.470;2023-06-19T01:32:30;95758.47;;;20.95;46.81
44751;BME280;30477;48.224;11.470;2023-06-19T01:34:57;95763.72;;;20.95;46.71
44751;BME280;30477;48.224;11.470;2023-06-19T01:37:25;95755.41;;;20.98;46.48
44751;BME280;30477;48.224;11.470;2023-06-19T01:39:55;95753.38;;;21.00;46.08
44751;BME280;30477;48.224;11.470;2023-06-19T01:42:21;95750.56;;;20.95;46.40
44751;BME280;30477;48.224;11.470;2023-06-19T01:44:47;95756.41;;;20.97;46.16
44751;BME280;30477;48.224;11.470;2023-06-19T01:47:12;95754.13;;;21.07;46.39
44751;BME280;30477;48.224;11.470;2023-06-19T01:49:38;95754.50;;;21.11;46.37
44751;BME280;30477;48.224;11.470;2023-06-19T01:52:04;95758.38;;;21.08;46.16
44751;BME280;30477;48.224;11.470;2023-06-19T01:54:29;95748.28;;;21.05;46.36
44751;BME280;30477;48.224;11.470;2023-06-19T01:56:56;95749.91;;;21.06;46.79
44751;BME280;30477;48.224;11.470;2023-06-19T01:59:21;95743.25;;;20.97;47.12
44751;BME280;30477;48.224;11.470;2023-06-19T02:01:47;95752.84;;;20.85;47.03
44751;BME280;30477;48.224;11.470;2023-06-19T02:04:12;95751.00;;;20.60;48.00
44751;BME280;30477;48.224;11.470;2023-06-19T02:06:37;95753.44;;;20.48;48.87
44751;BME280;30477;48.224;11.470;2023-06-19T02:09:03;95756.84;;;20.49;49.21
44751;BME280;30477;48.224;11.470;2023-06-19T02:11:28;95751.59;;;20.62;48.87
44751;BME280;30477;48.224;11.470;2023-06-19T02:13:53;95756.31;;;20.79;48.29
44751;BME280;30477;48.224;11.470;2023-06-19T02:16:19;95751.84;;;20.86;47.98
44751;BME280;30477;48.224;11.470;2023-06-19T02:18:44;95752.44;;;20.88;47.71
44751;BME280;30477;48.224;11.470;2023-06-19T02:21:09;95754.78;;;20.71;47.99
44751;BME280;30477;48.224;11.470;2023-06-19T02:23:35;95756.63;;;20.57;48.49
44751;BME280;30477;48.224;11.470;2023-06-19T02:26:00;95755.06;;;20.50;48.98
44751;BME280;30477;48.224;11.470;2023-06-19T02:28:25;95755.66;;;20.52;48.63
44751;BME280;30477;48.224;11.470;2023-06-19T02:30:53;95757.06;;;20.61;48.64
44751;BME280;30477;48.224;11.470;2023-06-19T02:33:18;95753.53;;;20.74;48.05
44751;BME280;30477;48.224;11.470;2023-06-19T02:35:44;95742.16;;;20.80;47.82
44751;BME280;30477;48.224;11.470;2023-06-19T02:38:09;95743.84;;;20.67;47.88
44751;BME280;30477;48.224;11.470;2023-06-19T02:40:35;95746.41;;;20.81;47.46
44751;BME280;30477;48.224;11.470;2023-06-19T02:43:00;95753.03;;;20.90;47.08
44751;BME280;30477;48.224;11.470;2023-06-19T02:45:25;95755.63;;;20.97;46.72
44751;BME280;30477;48.224;11.470;2023-06-19T02:47:51;95748.72;;;21.02;46.17
44751;BME280;30477;48.224;11.470;2023-06-19T02:50:17;95754.97;;;21.01;46.15
44751;BME280;30477;48.224;11.470;2023-06-19T02:52:42;95750.16;;;20.98;46.08
44751;BME280;30477;48.224;11.470;2023-06-19T02:55:08;95748.72;;;21.02;45.91
44751;BME280;30477;48.224;11.470;2023-06-19T02:57:33;95753.53;;;21.05;46.09
44751;BME280;30477;48.224;11.470;2023-06-19T02:59:59;95751.94;;;21.04;45.73
44751;BME280;30477;48.224;11.470;2023-06-19T03:02:24;95758.19;;;21.03;45.91
44751;BME280;30477;48.224;11.470;2023-06-19T03:04:50;95750.91;;;21.05;45.95
44751;BME280;30477;48.224;11.470;2023-06-19T03:07:15;95754.78;;;21.03;46.31
44751;BME280;30477;48.224;11.470;2023-06-19T03:09:41;95755.56;;;21.03;46.30
44751;BME280;30477;48.224;11.470;2023-06-19T03:12:07;95758.19;;;21.03;46.44
44751;BME280;30477;48.224;11.470;2023-06-19T03:14:33;95752.53;;;21.06;46.49
44751;BME280;30477;48.224;11.470;2023-06-19T03:16:58;95759.78;;;21.11;46.43
44751;BME280;30477;48.224;11.470;2023-06-19T03:19:23;95768.91;;;21.08;46.39
44751;BME280;30477;48.224;11.470;2023-06-19T03:21:49;95767.28;;;21.07;46.43
44751;BME280;30477;48.224;11.470;2023-06-19T03:24:14;95772.59;;;21.01;47.12
44751;BME280;30477;48.224;11.470;2023-06-19T03:26:39;95777.22;;;21.05;47.13
44751;BME280;30477;48.224;11.470;2023-06-19T03:29:05;95778.84;;;21.06;47.31
44751;BME280;30477;48.224;11.470;2023-06-19T03:31:30;95781.88;;;21.03;47.04
44751;BME280;30477;48.224;11.470;2023-06-19T03:33:56;95780.88;;;21.04;47.36
44751;BME280;30477;48.224;11.470;2023-06-19T03:36:21;95781.47;;;21.06;47.18
44751;BME280;30477;48.224;11.470;2023-06-19T03:38:48;95786.75;;;21.06;47.40
44751;BME280;30477;48.224;11.470;2023-06-19T03:41:13;95784.25;;;21.12;47.41
44751;BME280;30477;48.224;11.470;2023-06-19T03:43:38;95789.53;;;21.12;47.76
44751;BME280;30477;48.224;11.470;2023-06-19T03:46:04;95785.44;;;21.16;47.61
44751;BME280;30477;48.224;11.470;2023-06-19T03:48:30;95798.78;;;21.21;47.81
44751;BME280;30477;48.224;11.470;2023-06-19T03:50:55;95806.69;;;21.21;47.81
44751;BME280;30477;48.224;11.470;2023-06-19T03:53:21;95806.44;;;21.22;47.91
44751;BME280;30477;48.224;11.470;2023-06-19T03:55:46;95809.88;;;21.23;48.13
44751;BME280;30477;48.224;11.470;2023-06-19T03:58:11;95813.41;;;21.17;48.45
44751;BME280;30477;48.224;11.470;2023-06-19T04:00:37;95820.47;;;21.16;48.59
44751;BME280;30477;48.224;11.470;2023-06-19T04:03:02;95819.06;;;21.14;48.64
44751;BME280;30477;48.224;11.470;2023-06-19T04:05:27;95819.03;;;21.20;48.46
44751;BME280;30477;48.224;11.470;2023-06-19T04:07:53;95817.22;;;21.21;48.40
44751;BME280;30477;48.224;11.470;2023-06-19T04:10:18;95823.03;;;21.23;48.38
44751;BME280;30477;48.224;11.470;2023-06-19T04:12:44;95829.94;;;21.24;48.21
44751;BME280;30477;48.224;11.470;2023-06-19T04:15:10;95825.47;;;21.24;48.52
44751;BME280;30477;48.224;11.470;2023-06-19T04:17:36;95833.56;;;21.23;48.54
44751;BME280;30477;48.224;11.470;2023-06-19T04:20:01;95838.00;;;21.29;48.52
44751;BME280;30477;48.224;11.470;2023-06-19T04:22:31;95840.25;;;21.25;49.01
44751;BME280;30477;48.224;11.470;2023-06-19T04:24:57;95856.25;;;21.24;49.93
44751;BME280;30477;48.224;11.470;2023-06-19T04:27:22;95845.34;;;21.20;50.52
44751;BME280;30477;48.224;11.470;2023-06-19T04:29:47;95849.00;;;21.19;51.15
44751;BME280;30477;48.224;11.470;2023-06-19T04:32:13;95850.84;;;21.19;51.10
44751;BME280;30477;48.224;11.470;2023-06-19T04:34:38;95862.81;;;21.15;51.40
44751;BME280;30477;48.224;11.470;2023-06-19T04:37:04;95869.31;;;21.05;52.83
44751;BME280;30477;48.224;11.470;2023-06-19T04:39:30;95881.13;;;20.96;52.89
44751;BME280;30477;48.224;11.470;2023-06-19T04:41:55;95880.50;;;20.94;53.28
44751;BME280;30477;48.224;11.470;2023-06-19T04:44:20;95881.88;;;21.03;52.89
44751;BME280;30477;48.224;11.470;2023-06-19T04:46:46;95887.13;;;21.03;52.79
44751;BME280;30477;48.224;11.470;2023-06-19T04:49:12;95893.88;;;20.93;52.78
44751;BME280;30477;48.224;11.470;2023-06-19T04:51:38;95885.19;;;20.92;52.81
44751;BME280;30477;48.224;11.470;2023-06-19T04:54:03;95891.28;;;20.86;53.00
44751;BME280;30477;48.224;11.470;2023-06-19T04:56:29;95897.13;;;20.88;52.68
44751;BME280;30477;48.224;11.470;2023-06-19T04:58:55;95898.13;;;20.87;52.41
44751;BME280;30477;48.224;11.470;2023-06-19T05:01:24;95900.13;;;20.98;52.06
44751;BME280;30477;48.224;11.470;2023-06-19T05:03:54;95894.44;;;21.01;51.84
44751;BME280;30477;48.224;11.470;2023-06-19T05:06:21;95895.00;;;21.10;51.35
44751;BME280;30477;48.224;11.470;2023-06-19T05:08:47;95906.94;;;21.13;51.33
44751;BME280;30477;48.224;11.470;2023-06-19T05:11:12;95897.63;;;21.17;51.08
44751;BME280;30477;48.224;11.470;2023-06-19T05:13:37;95908.75;;;21.19;51.16
44751;BME280;30477;48.224;11.470;2023-06-19T05:16:03;95905.69;;;21.22;51.28
44751;BME280;30477;48.224;11.470;2023-06-19T05:18:28;95913.97;;;21.25;51.42
44751;BME280;30477;48.224;11.470;2023-06-19T05:20:53;95910.09;;;21.28;51.20
44751;BME280;30477;48.224;11.470;2023-06-19T05:23:19;95911.69;;;21.29;51.13
44751;BME280;30477;48.224;11.470;2023-06-19T05:25:44;95910.00;;;21.41;50.81
44751;BME280;30477;48.224;11.470;2023-06-19T05:28:10;95916.09;;;21.48;50.93
44751;BME280;30477;48.224;11.470;2023-06-19T05:30:35;95907.56;;;21.53;51.07
44751;BME280;30477;48.224;11.470;2023-06-19T05:33:01;95917.28;;;21.53;50.93
44751;BME280;30477;48.224;11.470;2023-06-19T05:35:26;95914.22;;;21.56;50.87
44751;BME280;30477;48.224;11.470;2023-06-19T05:37:51;95922.31;;;21.61;50.70
44751;BME280;30477;48.224;11.470;2023-06-19T05:40:17;95919.44;;;21.62;50.66
44751;BME280;30477;48.224;11.470;2023-06-19T05:42:42;95924.66;;;21.69;50.47
44751;BME280;30477;48.224;11.470;2023-06-19T05:45:08;95925.63;;;21.75;50.35
44751;BME280;30477;48.224;11.470;2023-06-19T05:47:33;95925.25;;;21.71;50.42
44751;BME280;30477;48.224;11.470;2023-06-19T05:49:59;95928.13;;;21.69;50.63
44751;BME280;30477;48.224;11.470;2023-06-19T05:52:24;95929.91;;;21.76;50.86
44751;BME280;30477;48.224;11.470;2023-06-19T05:54:50;95928.81;;;21.83;50.40
44751;BME280;30477;48.224;11.470;2023-06-19T05:57:15;95925.75;;;21.86;50.51
44751;BME280;30477;48.224;11.470;2023-06-19T05:59:41;95929.53;;;21.97;50.23
44751;BME280;30477;48.224;11.470;2023-06-19T06:02:07;95934.09;;;22.08;50.00
44751;BME280;30477;48.224;11.470;2023-06-19T06:04:33;95927.75;;;22.16;50.28
44751;BME280;30477;48.224;11.470;2023-06-19T06:06:59;95933.38;;;22.26;50.21
44751;BME280;30477;48.224;11.470;2023-06-19T06:09:24;95932.66;;;22.38;49.72
44751;BME280;30477;48.224;11.470;2023-06-19T06:11:50;95937.97;;;22.56;49.62
44751;BME280;30477;48.224;11.470;2023-06-19T06:14:15;95936.66;;;23.02;49.04
44751;BME280;30477;48.224;11.470;2023-06-19T06:16:40;95929.69;;;23.68;47.58
44751;BME280;30477;48.224;11.470;2023-06-19T06:19:06;95936.13;;;23.73;47.07
44751;BME280;30477;48.224;11.470;2023-06-19T06:21:31;95945.56;;;24.22;46.34
44751;BME280;30477;48.224;11.470;2023-06-19T06:23:57;95935.09;;;24.86;44.55
44751;BME280;30477;48.224;11.470;2023-06-19T06:26:22;95939.47;;;24.69;43.31
44751;BME280;30477;48.224;11.470;2023-06-19T06:28:47;95946.63;;;24.45;43.81
44751;BME280;30477;48.224;11.470;2023-06-19T06:31:13;95944.53;;;24.23;43.90
44751;BME280;30477;48.224;11.470;2023-06-19T06:33:38;95962.25;;;24.11;44.02
44751;BME280;30477;48.224;11.470;2023-06-19T06:36:03;95961.41;;;23.99;44.39
44751;BME280;30477;48.224;11.470;2023-06-19T06:38:29;95963.09;;;23.93;44.41
44751;BME280;30477;48.224;11.470;2023-06-19T06:40:55;95964.81;;;23.87;44.36
44751;BME280;30477;48.224;11.470;2023-06-19T06:43:20;95966.66;;;23.87;44.56
44751;BME280;30477;48.224;11.470;2023-06-19T06:45:46;95967.81;;;23.79;44.31
44751;BME280;30477;48.224;11.470;2023-06-19T06:48:11;95973.53;;;23.76;44.69
44751;BME280;30477;48.224;11.470;2023-06-19T06:50:37;95987.75;;;23.75;45.08
44751;BME280;30477;48.224;11.470;2023-06-19T06:53:02;95984.53;;;23.73;45.02
44751;BME280;30477;48.224;11.470;2023-06-19T06:55:28;95992.59;;;23.78;44.94
44751;BME280;30477;48.224;11.470;2023-06-19T06:57:53;95986.06;;;23.81;44.92
44751;BME280;30477;48.224;11.470;2023-06-19T07:00:18;95992.59;;;23.78;44.98
44751;BME280;30477;48.224;11.470;2023-06-19T07:02:44;95996.31;;;23.89;45.23
44751;BME280;30477;48.224;11.470;2023-06-19T07:05:11;95992.47;;;24.15;45.15
44751;BME280;30477;48.224;11.470;2023-06-19T07:07:37;96002.09;;;24.63;44.60
44751;BME280;30477;48.224;11.470;2023-06-19T07:10:02;95991.84;;;25.43;43.56
44751;BME280;30477;48.224;11.470;2023-06-19T07:12:28;95999.69;;;25.49;42.34
44751;BME280;30477;48.224;11.470;2023-06-19T07:14:53;96000.31;;;25.04;42.71
44751;BME280;30477;48.224;11.470;2023-06-19T07:17:19;95999.88;;;24.84;42.71
44751;BME280;30477;48.224;11.470;2023-06-19T07:19:44;95993.47;;;24.56;43.01
44751;BME280;30477;48.224;11.470;2023-06-19T07:22:10;95997.03;;;24.50;43.62
44751;BME280;30477;48.224;11.470;2023-06-19T07:24:35;95998.75;;;24.56;43.34
44751;BME280;30477;48.224;11.470;2023-06-19T07:27:01;95995.19;;;24.62;43.39
44751;BME280;30477;48.224;11.470;2023-06-19T07:29:26;95997.38;;;24.89;43.08
44751;BME280;30477;48.224;11.470;2023-06-19T07:31:52;96000.19;;;25.35;42.48
44751;BME280;30477;48.224;11.470;2023-06-19T07:34:17;95996.94;;;25.73;41.70
44751;BME280;30477;48.224;11.470;2023-06-19T07:36:42;96006.13;;;25.54;41.50
44751;BME280;30477;48.224;11.470;2023-06-19T07:39:08;96000.53;;;25.15;41.78
44751;BME280;30477;48.224;11.470;2023-06-19T07:41:33;96000.31;;;25.04;42.52
44751;BME280;30477;48.224;11.470;2023-06-19T07:43:58;96005.84;;;25.15;42.38
44751;BME280;30477;48.224;11.470;2023-06-19T07:46:24;96009.91;;;25.05;42.63
44751;BME280;30477;48.224;11.470;2023-06-19T07:48:49;96008.41;;;24.98;42.32
44751;BME280;30477;48.224;11.470;2023-06-19T07:51:14;96003.34;;;24.84;42.76
44751;BME280;30477;48.224;11.470;2023-06-19T07:53:39;95998.88;;;24.73;43.34
44751;BME280;30477;48.224;11.470;2023-06-19T07:56:05;96004.25;;;24.90;43.32
44751;BME280;30477;48.224;11.470;2023-06-19T07:58:30;96007.81;;;24.96;43.54
44751;BME280;30477;48.224;11.470;2023-06-19T08:00:55;96006.31;;;25.00;43.81
44751;BME280;30477;48.224;11.470;2023-06-19T08:03:20;96003.41;;;25.13;43.00
44751;BME280;30477;48.224;11.470;2023-06-19T08:05:47;96013.47;;;25.23;43.54
44751;BME280;30477;48.224;11.470;2023-06-19T08:08:12;96017.81;;;25.29;43.08
44751;BME280;30477;48.224;11.470;2023-06-19T08:10:38;96019.16;;;25.43;42.44
44751;BME280;30477;48.224;11.470;2023-06-19T08:13:03;96017.88;;;25.58;41.84
44751;BME280;30477;48.224;11.470;2023-06-19T08:15:28;96028.22;;;25.88;41.74
44751;BME280;30477;48.224;11.470;2023-06-19T08:17:54;96020.00;;;26.18;40.81
44751;BME280;30477;48.224;11.470;2023-06-19T08:20:20;96021.47;;;26.43;40.39
44751;BME280;30477;48.224;11.470;2023-06-19T08:22:45;96014.84;;;26.57;40.28
44751;BME280;30477;48.224;11.470;2023-06-19T08:25:10;96011.81;;;26.37;40.31
44751;BME280;30477;48.224;11.470;2023-06-19T08:27:36;96013.19;;;26.22;40.42
44751;BME280;30477;48.224;11.470;2023-06-19T08:30:01;96010.88;;;26.43;39.92
44751;BME280;30477;48.224;11.470;2023-06-19T08:32:26;96010.66;;;26.61;39.03
44751;BME280;30477;48.224;11.470;2023-06-19T08:34:52;96011.41;;;26.79;38.55
44751;BME280;30477;48.224;11.470;2023-06-19T08:37:17;96008.84;;;26.84;37.49
44751;BME280;30477;48.224;11.470;2023-06-19T08:39:43;96005.69;;;26.87;37.88
44751;BME280;30477;48.224;11.470;2023-06-19T08:42:09;95998.78;;;26.86;38.07
44751;BME280;30477;48.224;11.470;2023-06-19T08:44:37;96004.38;;;26.67;37.86
44751;BME280;30477;48.224;11.470;2023-06-19T08:47:03;96007.47;;;26.30;38.88
44751;BME280;30477;48.224;11.470;2023-06-19T08:49:29;96006.69;;;26.30;38.96
44751;BME280;30477;48.224;11.470;2023-06-19T08:51:55;96015.44;;;26.13;38.97
44751;BME280;30477;48.224;11.470;2023-06-19T08:54:21;96017.03;;;25.98;39.39
44751;BME280;30477;48.224;11.470;2023-06-19T08:56:47;96015.34;;;25.91;39.35
44751;BME280;30477;48.224;11.470;2023-06-19T08:59:18;96018.63;;;25.87;39.73
44751;BME280;30477;48.224;11.470;2023-06-19T09:01:52;96021.13;;;25.77;39.98
44751;BME280;30477;48.224;11.470;2023-06-19T09:04:19;96018.03;;;25.68;40.40
44751;BME280;30477;48.224;11.470;2023-06-19T09:06:47;96017.94;;;25.63;40.16
44751;BME280;30477;48.224;11.470;2023-06-19T09:09:14;96018.81;;;25.51;40.85
44751;BME280;30477;48.224;11.470;2023-06-19T09:11:40;96017.09;;;25.45;40.82
44751;BME280;30477;48.224;11.470;2023-06-19T09:14:11;96011.22;;;25.43;41.39
44751;BME280;30477;48.224;11.470;2023-06-19T09:16:40;96020.09;;;25.37;41.47
44751;BME280;30477;48.224;11.470;2023-06-19T09:19:06;96009.81;;;25.41;42.11
44751;BME280;30477;48.224;11.470;2023-06-19T09:21:34;96011.53;;;25.47;41.70
44751;BME280;30477;48.224;11.470;2023-06-19T09:24:07;96017.66;;;25.47;42.70
44751;BME280;30477;48.224;11.470;2023-06-19T09:26:33;96013.38;;;25.46;42.28
44751;BME280;30477;48.224;11.470;2023-06-19T09:29:13;96016.84;;;25.47;42.40
44751;BME280;30477;48.224;11.470;2023-06-19T09:31:38;96015.81;;;25.48;42.55
44751;BME280;30477;48.224;11.470;2023-06-19T09:34:06;96012.44;;;25.52;42.67
44751;BME280;30477;48.224;11.470;2023-06-19T09:36:32;96007.25;;;25.58;42.55
44751;BME280;30477;48.224;11.470;2023-06-19T09:38:59;96005.72;;;25.62;42.65
44751;BME280;30477;48.224;11.470;2023-06-19T09:41:25;96005.25;;;25.65;42.87
44751;BME280;30477;48.224;11.470;2023-06-19T09:43:54;96010.38;;;25.83;42.73
44751;BME280;30477;48.224;11.470;2023-06-19T09:46:25;95999.28;;;26.49;42.00
44751;BME280;30477;48.224;11.470;2023-06-19T09:48:53;95992.22;;;26.93;40.77
44751;BME280;30477;48.224;11.470;2023-06-19T09:51:23;95992.59;;;27.02;40.15
44751;BME280;30477;48.224;11.470;2023-06-19T09:53:49;95996.41;;;26.67;39.76
44751;BME280;30477;48.224;11.470;2023-06-19T09:56:16;95995.75;;;26.60;39.39
44751;BME280;30477;48.224;11.470;2023-06-19T09:58:47;95992.22;;;26.71;38.50
44751;BME280;30477;48.224;11.470;2023-06-19T10:01:14;95992.69;;;26.68;38.24
44751;BME280;30477;48.224;11.470;2023-06-19T10:03:40;95992.78;;;26.73;38.72
44751;BME280;30477;48.224;11.470;2023-06-19T10:06:06;95982.84;;;26.86;38.33
44751;BME280;30477;48.224;11.470;2023-06-19T10:08:32;95982.38;;;26.72;37.86
44751;BME280;30477;48.224;11.470;2023-06-19T10:11:03;95980.88;;;26.59;38.07
44751;BME280;30477;48.224;11.470;2023-06-19T10:13:35;95987.00;;;26.60;38.17
44751;BME280;30477;48.224;11.470;2023-06-19T10:16:03;95987.63;;;26.67;38.14
44751;BME280;30477;48.224;11.470;2023-06-19T10:18:29;95988.31;;;26.79;38.17
44751;BME280;30477;48.224;11.470;2023-06-19T10:20:56;95983.41;;;26.88;38.45
44751;BME280;30477;48.224;11.470;2023-06-19T10:23:24;95987.16;;;26.92;38.07
44751;BME280;30477;48.224;11.470;2023-06-19T10:25:58;95989.41;;;27.00;37.80
44751;BME280;30477;48.224;11.470;2023-06-19T10:28:32;95976.81;;;27.12;37.18
44751;BME280;30477;48.224;11.470;2023-06-19T10:31:03;95978.91;;;27.10;37.13
44751;BME280;30477;48.224;11.470;2023-06-19T10:33:30;95978.63;;;27.07;36.76
44751;BME280;30477;48.224;11.470;2023-06-19T10:35:58;95984.59;;;26.97;36.46
44751;BME280;30477;48.224;11.470;2023-06-19T10:38:25;95981.66;;;26.77;36.46
44751;BME280;30477;48.224;11.470;2023-06-19T10:40:50;95984.66;;;26.63;36.93
44751;BME280;30477;48.224;11.470;2023-06-19T10:43:22;95981.44;;;26.61;37.70
44751;BME280;30477;48.224;11.470;2023-06-19T10:45:53;95975.94;;;26.51;37.69
44751;BME280;30477;48.224;11.470;2023-06-19T10:48:20;95980.94;;;26.64;38.33
44751;BME280;30477;48.224;11.470;2023-06-19T10:50:47;95968.31;;;26.71;38.47
44751;BME280;30477;48.224;11.470;2023-06-19T10:53:23;95970.41;;;26.69;38.61
44751;BME280;30477;48.224;11.470;2023-06-19T10:55:48;95971.63;;;26.62;38.69
44751;BME280;30477;48.224;11.470;2023-06-19T10:58:13;95975.94;;;26.51;37.63
44751;BME280;30477;48.224;11.470;2023-06-19T11:00:38;95963.72;;;26.50;37.73
44751;BME280;30477;48.224;11.470;2023-06-19T11:03:04;95962.13;;;26.49;37.37
44751;BME280;30477;48.224;11.470;2023-06-19T11:05:29;95960.09;;;26.39;37.09
44751;BME280;30477;48.224;11.470;2023-06-19T11:07:55;95949.75;;;26.38;37.27
44751;BME280;30477;48.224;11.470;2023-06-19T11:10:23;95957.16;;;26.36;38.44
44751;BME280;30477;48.224;11.470;2023-06-19T11:12:50;95949.66;;;26.32;40.51
44751;BME280;30477;48.224;11.470;2023-06-19T11:15:18;95952.00;;;26.29;39.77
44751;BME280;30477;48.224;11.470;2023-06-19T11:17:43;95954.50;;;26.36;40.68
44751;BME280;30477;48.224;11.470;2023-06-19T11:20:12;95953.59;;;26.47;39.51
44751;BME280;30477;48.224;11.470;2023-06-19T11:22:40;95948.47;;;26.40;40.01
44751;BME280;30477;48.224;11.470;2023-06-19T11:25:07;95945.47;;;26.53;38.96
44751;BME280;30477;48.224;11.470;2023-06-19T11:27:33;95946.44;;;26.64;38.76
44751;BME280;30477;48.224;11.470;2023-06-19T11:30:00;95944.34;;;26.66;38.13
44751;BME280;30477;48.224;11.470;2023-06-19T11:32:32;95941.22;;;26.69;37.25
44751;BME280;30477;48.224;11.470;2023-06-19T11:35:04;95947.44;;;26.80;37.33
44751;BME280;30477;48.224;11.470;2023-06-19T11:37:32;95939.66;;;26.73;37.34
44751;BME280;30477;48.224;11.470;2023-06-19T11:39:58;95940.16;;;26.70;37.19
44751;BME280;30477;48.224;11.470;2023-06-19T11:42:23;95939.41;;;26.75;37.03
44751;BME280;30477;48.224;11.470;2023-06-19T11:44:57;95932.31;;;26.81;37.21
44751;BME280;30477;48.224;11.470;2023-06-19T11:47:22;95936.03;;;26.80;36.84
44751;BME280;30477;48.224;11.470;2023-06-19T11:49:48;95926.69;;;26.77;36.77
44751;BME280;30477;48.224;11.470;2023-06-19T11:52:14;95917.44;;;26.80;36.33
44751;BME280;30477;48.224;11.470;2023-06-19T11:54:40;95926.53;;;26.84;36.68
44751;BME280;30477;48.224;11.470;2023-06-19T11:57:05;95924.09;;;26.82;36.39
44751;BME280;30477;48.224;11.470;2023-06-19T11:59:31;95917.63;;;26.95;36.93
44751;BME280;30477;48.224;11.470;2023-06-19T12:01:56;95912.97;;;27.29;36.73
44751;BME280;30477;48.224;11.470;2023-06-19T12:04:23;95912.31;;;27.39;36.33
44751;BME280;30477;48.224;11.470;2023-06-19T12:06:49;95911.63;;;27.27;36.25
44751;BME280;30477;48.224;11.470;2023-06-19T12:09:14;95914.09;;;27.11;36.50
44751;BME280;30477;48.224;11.470;2023-06-19T12:11:40;95911.09;;;27.25;36.79
44751;BME280;30477;48.224;11.470;2023-06-19T12:14:05;95910.44;;;27.18;36.32
44751;BME280;30477;48.224;11.470;2023-06-19T12:16:30;95905.41;;;27.21;36.73
44751;BME280;30477;48.224;11.470;2023-06-19T12:18:56;95901.81;;;27.27;36.33
44751;BME280;30477;48.224;11.470;2023-06-19T12:21:21;95898.75;;;27.19;36.40
44751;BME280;30477;48.224;11.470;2023-06-19T12:23:46;95896.75;;;27.26;36.57
44751;BME280;30477;48.224;11.470;2023-06-19T12:26:11;95893.34;;;27.30;36.79
44751;BME280;30477;48.224;11.470;2023-06-19T12:28:37;95894.13;;;27.31;36.80
44751;BME280;30477;48.224;11.470;2023-06-19T12:31:02;95886.19;;;27.36;37.56
44751;BME280;30477;48.224;11.470;2023-06-19T12:33:28;95885.69;;;27.34;37.39
44751;BME280;30477;48.224;11.470;2023-06-19T12:35:58;95885.81;;;27.22;37.16
44751;BME280;30477;48.224;11.470;2023-06-19T12:38:23;95887.72;;;27.27;37.97
44751;BME280;30477;48.224;11.470;2023-06-19T12:40:49;95877.09;;;27.27;37.57
44751;BME280;30477;48.224;11.470;2023-06-19T12:43:14;95874.66;;;27.25;37.52
44751;BME280;30477;48.224;11.470;2023-06-19T12:45:39;95875.78;;;27.29;37.85